Time;durP1;ratioP1;P1;durP2;ratioP2;P2;SDS_P1;SDS_P2;PMS_P1;PMS_P2;Temp;Humidity;BMP_temperature;BMP_pressure;BME280_temperature;BME280_humidity;BME280_pressure;Samples;Min_cycle;Max_cycle;Signal;HPM_P1;HPM_P2
2020/12/03 00:00:57;;;;;;;18.80;16.70;;;1.50;31.30;;;;;;4930722;29;20590;-69
2020/12/03 00:03:35;;;;;;;21.90;17.48;;;1.50;31.90;;;;;;4932037;29;20194;-70
2020/12/03 00:06:17;;;;;;;20.25;16.73;;;1.60;32.10;;;;;;4931951;29;20538;-70
2020/12/03 00:08:50;;;;;;;22.52;18.45;;;1.60;31.40;;;;;;4932317;29;20178;-70
2020/12/03 00:11:15;;;;;;;25.55;16.52;;;1.60;31.30;;;;;;4932066;29;20179;-70
2020/12/03 00:13:41;;;;;;;19.27;17.30;;;1.60;30.90;;;;;;4932170;29;20537;-70
2020/12/03 00:16:08;;;;;;;24.90;17.10;;;1.60;31.00;;;;;;4931968;29;20651;-70
2020/12/03 00:18:35;;;;;;;23.20;17.73;;;1.60;31.10;;;;;;4931712;29;20445;-71
2020/12/03 00:21:04;;;;;;;21.08;16.67;;;1.60;30.90;;;;;;4931491;29;20297;-70
2020/12/03 00:23:30;;;;;;;23.52;17.85;;;1.70;30.50;;;;;;4931672;29;20261;-70
2020/12/03 00:25:56;;;;;;;22.23;17.43;;;1.70;30.60;;;;;;4931768;29;20257;-70
2020/12/03 00:28:30;;;;;;;20.33;16.50;;;1.70;31.00;;;;;;4931552;29;20190;-70
2020/12/03 00:30:55;;;;;;;22.70;18.20;;;1.70;31.60;;;;;;4931372;29;20205;-70
2020/12/03 00:33:21;;;;;;;20.10;17.23;;;1.60;32.10;;;;;;4931604;29;20177;-70
2020/12/03 00:35:48;;;;;;;20.53;16.87;;;1.50;33.00;;;;;;4931520;29;20550;-70
2020/12/03 00:38:16;;;;;;;25.20;18.48;;;1.40;33.60;;;;;;4931477;29;20194;-71
2020/12/03 00:40:42;;;;;;;22.98;17.55;;;1.40;34.20;;;;;;4931094;29;20222;-71
2020/12/03 00:43:08;;;;;;;23.23;17.50;;;1.40;34.10;;;;;;4931762;29;20587;-70
2020/12/03 00:45:33;;;;;;;24.93;18.43;;;1.50;33.90;;;;;;4931283;29;20246;-69
2020/12/03 00:47:59;;;;;;;21.20;17.30;;;1.60;32.70;;;;;;4931423;29;20226;-70
2020/12/03 00:50:24;;;;;;;19.97;16.13;;;1.60;32.30;;;;;;4930967;29;20313;-70
2020/12/03 00:52:50;;;;;;;21.20;16.97;;;1.70;32.20;;;;;;4931295;29;20612;-70
2020/12/03 00:55:16;;;;;;;19.70;14.87;;;1.70;32.00;;;;;;4931341;29;20183;-71
2020/12/03 00:57:41;;;;;;;25.65;16.17;;;1.70;31.60;;;;;;4931376;29;20209;-70
2020/12/03 01:00:11;;;;;;;23.77;16.13;;;1.70;31.20;;;;;;4930774;29;20257;-69
2020/12/03 01:02:36;;;;;;;21.65;18.30;;;1.70;31.20;;;;;;4931168;29;20204;-69
2020/12/03 01:05:04;;;;;;;23.80;17.87;;;1.70;31.30;;;;;;4931100;29;20702;-70
2020/12/03 01:07:30;;;;;;;23.00;17.05;;;1.60;31.50;;;;;;4931209;29;20183;-69
2020/12/03 01:09:55;;;;;;;21.70;17.30;;;1.60;31.50;;;;;;4931108;29;20276;-70
2020/12/03 01:12:21;;;;;;;18.43;15.90;;;1.70;31.60;;;;;;4931027;29;20258;-70
2020/12/03 01:14:47;;;;;;;23.90;18.63;;;1.70;31.50;;;;;;4930887;29;20170;-70
2020/12/03 01:17:14;;;;;;;25.83;19.67;;;1.70;32.20;;;;;;4929746;29;20179;-70
2020/12/03 01:19:41;;;;;;;22.00;16.75;;;1.70;32.60;;;;;;4930622;29;20214;-69
2020/12/03 01:22:08;;;;;;;27.30;19.08;;;1.70;32.60;;;;;;4931040;29;20636;-70
2020/12/03 01:24:33;;;;;;;24.95;18.70;;;1.80;32.70;;;;;;4930895;29;20221;-69
2020/12/03 01:26:59;;;;;;;27.30;21.37;;;1.80;32.50;;;;;;4930777;29;20265;-70
2020/12/03 01:29:25;;;;;;;18.07;15.47;;;1.90;32.40;;;;;;4930460;29;20206;-69
2020/12/03 01:31:51;;;;;;;19.55;17.35;;;1.90;32.60;;;;;;4931523;29;20549;-70
2020/12/03 01:34:18;;;;;;;19.65;17.55;;;1.90;32.60;;;;;;4934371;29;20183;-70
2020/12/03 01:36:43;;;;;;;25.05;19.48;;;1.90;32.50;;;;;;4934176;29;20210;-69
2020/12/03 01:39:10;;;;;;;23.60;17.77;;;1.90;32.70;;;;;;4933878;29;20195;-70
2020/12/03 01:41:35;;;;;;;25.98;19.65;;;1.90;32.80;;;;;;4933959;29;20691;-71
2020/12/03 01:44:03;;;;;;;29.77;19.40;;;2.00;32.80;;;;;;4933833;29;20210;-69
2020/12/03 01:46:28;;;;;;;22.02;18.80;;;2.00;32.80;;;;;;4934061;29;20509;-70
2020/12/03 01:49:17;;;;;;;23.03;18.50;;;2.00;33.00;;;;;;4933952;29;20680;-70
2020/12/03 01:51:48;;;;;;;23.77;19.23;;;1.90;32.80;;;;;;4934148;29;20170;-69
2020/12/03 01:54:16;;;;;;;20.90;17.92;;;1.90;32.50;;;;;;4933903;29;20190;-69
2020/12/03 01:56:44;;;;;;;26.13;20.23;;;1.90;32.90;;;;;;4933879;29;20651;-69
2020/12/03 01:59:11;;;;;;;27.33;20.83;;;1.90;33.30;;;;;;4933779;29;20235;-69
2020/12/03 02:01:37;;;;;;;26.75;19.90;;;1.90;33.10;;;;;;4934017;29;20585;-69
2020/12/03 02:04:03;;;;;;;26.27;19.13;;;1.90;32.80;;;;;;4933674;29;20208;-69
2020/12/03 02:06:32;;;;;;;25.08;16.92;;;1.80;32.80;;;;;;4933789;29;20175;-70
2020/12/03 02:08:57;;;;;;;21.13;16.13;;;1.80;32.80;;;;;;4932004;29;20648;-70
2020/12/03 02:11:24;;;;;;;19.50;15.80;;;1.80;32.80;;;;;;4933665;29;20206;-69
2020/12/03 02:13:57;;;;;;;21.80;18.30;;;1.80;32.90;;;;;;4933725;29;20241;-70
2020/12/03 02:16:25;;;;;;;24.38;18.60;;;1.80;33.30;;;;;;4933772;29;20175;-70
2020/12/03 02:18:50;;;;;;;23.80;18.42;;;1.70;33.60;;;;;;4933664;29;20262;-69
2020/12/03 02:21:16;;;;;;;24.77;18.93;;;1.60;34.30;;;;;;4933530;29;20268;-71
2020/12/03 02:23:42;;;;;;;25.63;18.10;;;1.60;35.00;;;;;;4933393;29;20429;-70
2020/12/03 02:26:08;;;;;;;20.27;16.77;;;1.60;35.00;;;;;;4933434;29;20183;-70
2020/12/03 02:28:34;;;;;;;19.73;16.40;;;1.60;34.80;;;;;;4933366;29;20418;-69
2020/12/03 02:31:00;;;;;;;22.20;16.55;;;1.70;35.00;;;;;;4933287;29;20210;-70
2020/12/03 02:33:25;;;;;;;21.13;16.83;;;1.70;35.30;;;;;;4933607;29;20178;-70
2020/12/03 02:35:51;;;;;;;26.70;17.07;;;1.70;35.30;;;;;;4933448;29;20187;-70
2020/12/03 02:38:16;;;;;;;17.00;15.10;;;1.70;35.40;;;;;;4933541;29;20189;-71
2020/12/03 02:40:42;;;;;;;27.47;18.80;;;1.60;35.30;;;;;;4932865;29;20205;-69
2020/12/03 02:43:08;;;;;;;24.87;16.73;;;1.60;35.30;;;;;;4931033;29;20197;-70
2020/12/03 02:45:33;;;;;;;19.80;15.07;;;1.60;35.30;;;;;;4932717;29;20672;-69
2020/12/03 02:47:59;;;;;;;19.57;17.00;;;1.60;35.30;;;;;;4933157;29;20384;-69
2020/12/03 02:50:24;;;;;;;23.90;18.70;;;1.60;35.30;;;;;;4932714;29;20203;-70
2020/12/03 02:52:50;;;;;;;20.30;16.53;;;1.60;36.00;;;;;;4933033;29;20181;-70
2020/12/03 02:55:15;;;;;;;23.50;19.23;;;1.60;35.40;;;;;;4933009;29;20644;-69
2020/12/03 02:57:41;;;;;;;24.77;15.23;;;1.60;35.50;;;;;;4933117;29;20212;-70
2020/12/03 03:00:07;;;;;;;20.93;18.53;;;1.60;36.00;;;;;;4932705;29;20226;-69
2020/12/03 03:02:33;;;;;;;26.25;18.08;;;1.60;35.80;;;;;;4931662;29;20277;-70
2020/12/03 03:04:58;;;;;;;21.57;17.30;;;1.60;36.10;;;;;;4932795;29;20290;-69
2020/12/03 03:07:24;;;;;;;22.90;17.40;;;1.60;36.40;;;;;;4932799;29;20245;-69
2020/12/03 03:09:50;;;;;;;24.47;16.90;;;1.60;36.40;;;;;;4932530;29;20198;-70
2020/12/03 03:12:15;;;;;;;17.10;14.30;;;1.60;36.20;;;;;;4932845;29;20187;-70
2020/12/03 03:14:41;;;;;;;27.90;18.07;;;1.70;35.80;;;;;;4932765;29;20260;-69
2020/12/03 03:17:06;;;;;;;17.17;15.40;;;1.70;35.40;;;;;;4932859;29;20179;-69
2020/12/03 03:19:32;;;;;;;27.00;17.53;;;1.70;35.40;;;;;;4965301;22;21351;-73
2020/12/03 03:21:58;;;;;;;23.20;16.77;;;1.80;35.40;;;;;;5094932;28;20173;-74
2020/12/03 03:24:24;;;;;;;18.90;16.90;;;1.80;35.40;;;;;;5096949;28;20201;-73
2020/12/03 03:26:50;;;;;;;16.90;14.63;;;1.80;35.40;;;;;;5095701;28;20298;-74
2020/12/03 03:29:16;;;;;;;20.93;17.17;;;1.80;35.40;;;;;;5093461;28;20204;-73
2020/12/03 03:31:41;;;;;;;21.20;14.33;;;1.80;35.40;;;;;;5074539;28;20212;-73
2020/12/03 03:34:07;;;;;;;24.90;16.90;;;1.80;35.40;;;;;;5073067;28;20507;-73
2020/12/03 03:36:33;;;;;;;16.60;12.93;;;1.80;35.40;;;;;;5074298;28;20182;-73
2020/12/03 03:38:59;;;;;;;21.55;17.83;;;1.80;35.40;;;;;;5073927;28;20258;-73
2020/12/03 03:41:25;;;;;;;19.67;16.47;;;1.80;35.40;;;;;;5074042;28;20606;-74
2020/12/03 03:43:50;;;;;;;20.07;15.93;;;1.80;35.50;;;;;;5073137;28;20340;-73
2020/12/03 03:46:16;;;;;;;22.27;16.40;;;1.80;35.40;;;;;;5075247;28;20174;-72
2020/12/03 03:48:42;;;;;;;14.40;12.90;;;1.80;35.40;;;;;;5076623;28;20174;-73
2020/12/03 03:51:08;;;;;;;18.53;13.00;;;1.90;35.50;;;;;;5075099;28;20202;-73
2020/12/03 03:53:34;;;;;;;16.37;14.60;;;1.90;35.40;;;;;;5076174;28;20424;-73
2020/12/03 03:56:00;;;;;;;19.83;14.70;;;1.90;35.50;;;;;;5076478;28;20631;-74
2020/12/03 03:58:26;;;;;;;19.07;15.07;;;1.90;35.50;;;;;;5077542;28;20431;-74
2020/12/03 04:00:52;;;;;;;17.17;12.50;;;1.90;34.90;;;;;;5076602;28;20431;-74
2020/12/03 04:03:20;;;;;;;15.07;13.35;;;1.90;34.60;;;;;;5077201;28;20193;-74
2020/12/03 04:05:50;;;;;;;16.23;11.88;;;1.90;34.90;;;;;;5076849;28;20229;-73
2020/12/03 04:08:16;;;;;;;15.07;10.90;;;1.90;34.40;;;;;;5076797;28;20221;-74
2020/12/03 04:10:43;;;;;;;11.02;9.93;;;1.90;33.30;;;;;;5076198;28;20190;-73
2020/12/03 04:13:26;;;;;;;12.00;10.38;;;1.90;33.20;;;;;;5077727;28;20177;-73
2020/12/03 04:15:52;;;;;;;11.43;10.23;;;2.00;33.00;;;;;;5075459;28;20189;-72
2020/12/03 04:18:25;;;;;;;12.93;8.80;;;2.10;32.60;;;;;;5073724;28;20642;-73
2020/12/03 04:20:53;;;;;;;11.30;10.27;;;2.10;32.00;;;;;;5073009;28;20304;-72
2020/12/03 04:23:18;;;;;;;9.48;7.80;;;2.20;32.00;;;;;;5073455;28;20409;-72
2020/12/03 04:25:44;;;;;;;9.17;8.47;;;2.20;31.10;;;;;;5073249;28;20263;-72
2020/12/03 04:28:09;;;;;;;10.33;8.50;;;2.20;31.30;;;;;;5089545;28;20180;-73
2020/12/03 04:30:35;;;;;;;10.33;9.27;;;2.20;30.90;;;;;;5071299;28;20194;-71
2020/12/03 04:33:00;;;;;;;15.50;8.97;;;2.20;30.70;;;;;;5087039;28;20174;-71
2020/12/03 04:35:26;;;;;;;11.10;9.90;;;2.20;30.60;;;;;;5070247;28;20186;-72
2020/12/03 04:37:51;;;;;;;10.03;8.73;;;2.20;30.60;;;;;;5071705;28;20169;-71
2020/12/03 04:40:33;;;;;;;11.20;9.07;;;2.20;30.60;;;;;;5070953;28;20735;-71
2020/12/03 04:43:06;;;;;;;10.00;9.00;;;2.30;30.40;;;;;;5071284;28;20185;-71
2020/12/03 04:46:01;;;;;;;10.98;9.82;;;2.20;30.40;;;;;;5071076;28;20662;-72
2020/12/03 04:48:32;;;;;;;9.52;8.52;;;2.20;30.40;;;;;;5060678;28;20564;-71
2020/12/03 04:51:34;;;;;;;11.05;9.75;;;2.20;30.10;;;;;;5086336;28;20194;-71
2020/12/03 04:54:13;;;;;;;9.35;8.30;;;2.20;30.00;;;;;;5086601;28;20189;-71
2020/12/03 04:57:02;;;;;;;8.43;7.57;;;2.20;29.80;;;;;;5086789;28;20178;-71
2020/12/03 05:00:01;;;;;;;9.50;8.60;;;2.30;29.10;;;;;;5070677;28;20216;-71
2020/12/03 05:02:36;;;;;;;9.20;8.15;;;2.30;29.00;;;;;;5070900;28;20670;-71
2020/12/03 05:05:21;;;;;;;7.50;6.90;;;2.30;28.90;;;;;;5086690;28;20200;-71
2020/12/03 05:07:56;;;;;;;7.20;6.50;;;2.30;28.40;;;;;;5068642;28;20193;-72
2020/12/03 05:10:34;;;;;;;8.43;7.70;;;2.30;28.80;;;;;;5086173;28;20208;-71
2020/12/03 05:13:00;;;;;;;9.63;7.30;;;2.40;28.20;;;;;;5086519;28;20182;-72
2020/12/03 05:15:32;;;;;;;8.95;8.05;;;2.40;28.00;;;;;;5071437;28;20638;-72
2020/12/03 05:18:25;;;;;;;8.70;7.80;;;2.40;27.90;;;;;;5070813;28;20581;-72
2020/12/03 05:20:53;;;;;;;11.95;7.75;;;2.40;27.40;;;;;;5070610;28;20205;-71
2020/12/03 05:23:33;;;;;;;9.00;7.85;;;2.40;27.80;;;;;;5070987;28;20212;-72
2020/12/03 05:26:00;;;;;;;8.93;7.80;;;2.40;27.80;;;;;;5071062;28;20174;-71
2020/12/03 05:28:41;;;;;;;8.93;8.07;;;2.40;28.00;;;;;;5070669;28;20177;-71
2020/12/03 05:31:21;;;;;;;9.05;8.35;;;2.30;28.00;;;;;;5070261;28;20217;-71
2020/12/03 05:33:46;;;;;;;9.75;8.75;;;2.40;28.00;;;;;;5070689;28;20227;-71
2020/12/03 05:36:21;;;;;;;10.00;9.00;;;2.40;27.90;;;;;;5085979;28;20580;-72
2020/12/03 05:38:47;;;;;;;14.05;8.57;;;2.40;27.70;;;;;;5070270;28;20209;-72
2020/12/03 05:41:15;;;;;;;9.00;8.20;;;2.40;27.90;;;;;;5069158;28;20343;-72
2020/12/03 05:43:41;;;;;;;8.32;7.57;;;2.40;27.80;;;;;;5054125;28;20245;-72
2020/12/03 05:46:07;;;;;;;8.17;7.37;;;2.40;27.50;;;;;;5049872;28;20175;-71
2020/12/03 05:48:33;;;;;;;8.25;7.55;;;2.40;27.70;;;;;;5050291;28;20683;-71
2020/12/03 05:51:15;;;;;;;8.73;7.83;;;2.40;27.80;;;;;;5048852;28;20198;-71
2020/12/03 05:53:52;;;;;;;7.13;6.45;;;2.40;27.80;;;;;;5050581;28;20258;-72
2020/12/03 05:56:21;;;;;;;9.98;8.98;;;2.40;27.80;;;;;;5049883;28;20186;-72
2020/12/03 05:58:47;;;;;;;9.65;8.68;;;2.40;27.30;;;;;;5064216;28;20232;-72
2020/12/03 06:01:19;;;;;;;7.93;7.27;;;2.40;27.00;;;;;;5049884;28;20198;-72
2020/12/03 06:04:22;;;;;;;8.30;7.50;;;2.40;26.90;;;;;;5049868;28;20187;-72
2020/12/03 06:07:06;;;;;;;7.88;7.10;;;2.50;27.10;;;;;;5049857;28;20693;-72
2020/12/03 06:09:44;;;;;;;8.23;7.53;;;2.50;26.80;;;;;;5049856;28;20603;-72
2020/12/03 06:12:29;;;;;;;7.72;7.10;;;2.50;26.70;;;;;;5050183;28;20174;-72
2020/12/03 06:15:34;;;;;;;8.40;7.63;;;2.40;26.70;;;;;;5051458;28;20179;-72
2020/12/03 06:18:43;;;;;;;8.13;7.30;;;2.50;26.70;;;;;;5045460;28;20194;-72
2020/12/03 06:21:20;;;;;;;8.73;7.93;;;2.50;26.80;;;;;;5053663;28;20596;-72
2020/12/03 06:24:01;;;;;;;8.70;7.80;;;2.40;26.70;;;;;;5057830;28;20659;-73
2020/12/03 06:26:40;;;;;;;8.90;8.00;;;2.40;27.10;;;;;;5054332;28;20171;-72
2020/12/03 06:29:09;;;;;;;8.20;7.18;;;2.40;26.90;;;;;;5053468;28;20667;-72
2020/12/03 06:32:02;;;;;;;7.40;6.70;;;2.50;26.70;;;;;;5053565;28;20178;-72
2020/12/03 06:34:32;;;;;;;12.88;7.75;;;2.50;26.80;;;;;;5053955;28;20197;-72
2020/12/03 06:37:02;;;;;;;7.60;6.90;;;2.50;26.80;;;;;;5053841;28;20186;-72
2020/12/03 06:39:54;;;;;;;8.88;7.97;;;2.50;26.70;;;;;;5053597;28;20237;-71
2020/12/03 06:42:46;;;;;;;9.25;8.25;;;2.50;26.80;;;;;;5053370;28;20174;-72
2020/12/03 06:45:24;;;;;;;7.57;6.88;;;2.50;26.90;;;;;;5053369;28;20210;-72
2020/12/03 06:47:58;;;;;;;8.43;7.72;;;2.50;26.70;;;;;;5053537;28;20249;-72
2020/12/03 06:50:34;;;;;;;9.30;7.65;;;2.50;27.10;;;;;;5052599;28;20267;-72
2020/12/03 06:53:38;;;;;;;7.88;7.05;;;2.40;27.70;;;;;;5053193;28;20647;-72
2020/12/03 06:56:21;;;;;;;6.95;6.22;;;2.40;27.80;;;;;;5053105;28;20204;-72
2020/12/03 06:59:20;;;;;;;9.02;8.13;;;2.40;28.20;;;;;;5051618;28;20775;-71
2020/12/03 07:02:23;;;;;;;6.65;6.05;;;2.40;28.30;;;;;;5052922;28;20846;-71
2020/12/03 07:05:19;;;;;;;7.95;6.25;;;2.40;28.40;;;;;;5053291;28;20210;-72
2020/12/03 07:08:13;;;;;;;9.50;7.25;;;2.40;28.30;;;;;;5052097;28;20174;-72
2020/12/03 07:11:07;;;;;;;9.45;8.50;;;2.40;28.30;;;;;;5053143;28;20280;-72
2020/12/03 07:14:18;;;;;;;8.63;7.53;;;2.30;28.80;;;;;;5053265;28;20199;-72
2020/12/03 07:16:47;;;;;;;8.18;6.95;;;2.30;28.80;;;;;;5053347;28;20182;-72
2020/12/03 07:19:46;;;;;;;7.63;6.90;;;2.30;28.90;;;;;;5052907;28;20667;-72
2020/12/03 07:22:23;;;;;;;8.73;7.85;;;2.30;28.80;;;;;;5052124;28;20273;-72
2020/12/03 07:24:50;;;;;;;9.30;8.32;;;2.30;28.80;;;;;;5052983;28;20206;-72
2020/12/03 07:27:54;;;;;;;8.73;7.93;;;2.30;28.90;;;;;;5053723;28;20174;-72
2020/12/03 07:30:48;;;;;;;7.85;7.15;;;2.30;28.80;;;;;;5036358;28;20225;-73
2020/12/03 07:33:56;;;;;;;10.07;9.07;;;2.30;28.90;;;;;;5058694;28;20194;-72
2020/12/03 07:36:36;;;;;;;9.48;7.95;;;2.40;29.00;;;;;;5026908;28;20901;-72
2020/12/03 07:39:27;;;;;;;13.77;8.85;;;2.40;29.00;;;;;;5007960;28;20187;-72
2020/12/03 07:42:11;;;;;;;10.32;8.93;;;2.40;29.00;;;;;;5059135;28;20248;-72
2020/12/03 07:44:41;;;;;;;10.40;9.30;;;2.40;29.00;;;;;;5069831;28;20244;-72
2020/12/03 07:47:25;;;;;;;16.50;10.20;;;2.40;29.10;;;;;;5070522;28;20177;-71
2020/12/03 07:49:54;;;;;;;10.18;8.32;;;2.40;29.30;;;;;;5069828;28;20190;-71
2020/12/03 07:52:30;;;;;;;9.60;8.65;;;2.40;29.00;;;;;;5070619;28;20263;-71
2020/12/03 07:55:24;;;;;;;8.88;8.10;;;2.50;29.00;;;;;;5068916;28;20240;-73
2020/12/03 07:57:55;;;;;;;10.73;8.40;;;2.50;28.80;;;;;;5067840;28;20236;-71
2020/12/03 08:00:26;;;;;;;9.93;8.93;;;2.50;28.90;;;;;;5068510;28;20546;-72
2020/12/03 08:02:55;;;;;;;10.48;9.43;;;2.60;29.00;;;;;;5069267;28;20182;-71
2020/12/03 08:05:43;;;;;;;13.23;10.90;;;2.60;28.70;;;;;;5068881;28;20198;-71
2020/12/03 08:08:24;;;;;;;9.07;7.72;;;2.70;28.40;;;;;;5067794;28;20265;-71
2020/12/03 08:10:51;;;;;;;12.38;9.60;;;2.60;28.40;;;;;;5067252;28;20276;-71
2020/12/03 08:13:20;;;;;;;11.27;7.55;;;2.60;28.10;;;;;;5068483;28;20186;-71
2020/12/03 08:16:03;;;;;;;10.20;9.05;;;2.60;28.10;;;;;;5083902;28;20196;-72
2020/12/03 08:18:41;;;;;;;8.90;8.00;;;2.60;27.90;;;;;;5066372;28;20177;-72
2020/12/03 08:21:08;;;;;;;15.95;9.27;;;2.60;28.30;;;;;;5057434;28;20623;-71
2020/12/03 08:23:34;;;;;;;10.35;9.02;;;2.70;27.80;;;;;;5083158;28;20203;-72
2020/12/03 08:25:59;;;;;;;8.77;7.67;;;2.70;27.60;;;;;;5069959;28;20206;-73
2020/12/03 08:28:29;;;;;;;8.27;7.40;;;2.70;26.90;;;;;;5072726;28;20182;-73
2020/12/03 08:30:54;;;;;;;8.65;7.85;;;2.80;27.00;;;;;;5088440;28;20265;-72
2020/12/03 08:33:31;;;;;;;8.50;7.53;;;2.80;27.00;;;;;;5091169;28;20271;-73
2020/12/03 08:36:02;;;;;;;22.92;8.68;;;2.80;26.50;;;;;;5084483;28;20193;-72
2020/12/03 08:38:31;;;;;;;8.50;7.55;;;2.80;26.40;;;;;;5068210;28;20389;-72
2020/12/03 08:41:01;;;;;;;11.32;8.35;;;2.80;26.40;;;;;;5069216;28;20252;-70
2020/12/03 08:43:28;;;;;;;9.73;7.85;;;2.80;26.60;;;;;;5070783;28;20181;-71
2020/12/03 08:46:09;;;;;;;9.48;7.82;;;2.80;26.90;;;;;;5070968;28;20197;-71
2020/12/03 08:48:38;;;;;;;12.20;8.48;;;2.90;26.70;;;;;;5070898;28;20534;-71
2020/12/03 08:51:09;;;;;;;10.93;7.60;;;2.90;26.40;;;;;;5070141;28;20276;-71
2020/12/03 08:53:36;;;;;;;9.25;8.35;;;3.00;25.90;;;;;;5070694;28;20175;-71
2020/12/03 08:56:29;;;;;;;8.73;7.85;;;3.00;25.60;;;;;;5070914;28;20863;-71
2020/12/03 08:59:00;;;;;;;10.02;7.38;;;3.10;25.90;;;;;;5069295;28;20285;-71
2020/12/03 09:01:31;;;;;;;9.52;8.73;;;3.10;25.40;;;;;;5070772;28;20205;-71
2020/12/03 09:03:59;;;;;;;8.98;8.07;;;3.20;25.20;;;;;;5070535;28;20180;-71
2020/12/03 09:06:32;;;;;;;7.57;6.88;;;3.30;25.00;;;;;;5085976;28;20178;-72
2020/12/03 09:09:01;;;;;;;11.75;9.55;;;3.40;24.10;;;;;;5070266;28;20166;-71
2020/12/03 09:11:29;;;;;;;11.82;8.73;;;3.40;23.80;;;;;;5085996;28;20748;-71
2020/12/03 09:13:58;;;;;;;9.32;7.75;;;3.50;23.70;;;;;;5070642;28;20166;-71
2020/12/03 09:16:26;;;;;;;8.80;8.20;;;3.60;23.40;;;;;;5070401;28;20166;-72
2020/12/03 09:18:52;;;;;;;8.15;7.47;;;3.70;23.50;;;;;;5070255;28;20171;-72
2020/12/03 09:21:25;;;;;;;10.30;7.93;;;3.80;23.10;;;;;;5070731;28;20264;-73
2020/12/03 09:23:54;;;;;;;10.48;9.48;;;3.80;22.20;;;;;;5070634;28;20175;-73
2020/12/03 09:26:29;;;;;;;7.00;6.40;;;3.80;21.90;;;;;;5070359;28;20174;-72
2020/12/03 09:28:56;;;;;;;8.15;7.45;;;3.90;21.90;;;;;;5070446;28;20174;-72
2020/12/03 09:31:22;;;;;;;8.40;7.60;;;3.80;21.20;;;;;;5070953;28;20194;-71
2020/12/03 09:33:51;;;;;;;12.00;7.88;;;3.70;21.70;;;;;;5086704;28;20178;-72
2020/12/03 09:36:17;;;;;;;12.35;6.65;;;3.60;21.90;;;;;;5071433;28;20173;-72
2020/12/03 09:38:47;;;;;;;6.95;6.32;;;3.50;21.60;;;;;;5070292;28;20173;-71
2020/12/03 09:41:15;;;;;;;7.63;6.93;;;3.50;21.80;;;;;;5070323;28;20213;-71
2020/12/03 09:43:41;;;;;;;8.13;7.43;;;3.40;22.30;;;;;;5070700;28;20225;-70
2020/12/03 09:46:12;;;;;;;8.73;7.82;;;3.50;21.90;;;;;;5070714;28;20705;-70
2020/12/03 09:48:40;;;;;;;7.50;6.80;;;3.60;22.00;;;;;;5070951;28;20170;-71
2020/12/03 09:51:06;;;;;;;9.30;8.00;;;3.60;22.00;;;;;;5070701;28;20276;-72
2020/12/03 09:53:35;;;;;;;7.83;7.23;;;3.60;22.20;;;;;;5073376;28;20603;-71
2020/12/03 09:56:02;;;;;;;7.97;7.38;;;3.70;21.00;;;;;;5075337;28;20199;-70
2020/12/03 09:58:28;;;;;;;7.25;6.68;;;3.70;21.10;;;;;;5075087;28;20175;-73
2020/12/03 10:00:57;;;;;;;9.90;9.00;;;3.80;21.70;;;;;;5074671;28;20193;-72
2020/12/03 10:03:34;;;;;;;7.63;6.93;;;3.90;21.40;;;;;;5074846;28;20424;-71
2020/12/03 10:06:03;;;;;;;13.68;9.15;;;4.00;20.90;;;;;;5074672;28;20241;-73
2020/12/03 10:08:37;;;;;;;9.10;8.30;;;4.10;20.30;;;;;;5090049;28;20545;-71
2020/12/03 10:11:29;;;;;;;14.15;8.38;;;4.10;19.60;;;;;;5074082;28;20275;-71
2020/12/03 10:14:13;;;;;;;9.70;8.80;;;4.10;20.20;;;;;;5074683;28;20167;-71
2020/12/03 10:16:43;;;;;;;12.35;8.68;;;4.10;19.90;;;;;;5074225;28;20238;-71
2020/12/03 10:19:10;;;;;;;8.70;8.00;;;4.10;20.40;;;;;;5073984;28;20692;-70
2020/12/03 10:21:44;;;;;;;9.18;8.38;;;4.10;20.20;;;;;;5074074;28;20190;-70
2020/12/03 10:24:19;;;;;;;9.48;8.68;;;4.00;20.40;;;;;;5074037;28;20284;-71
2020/12/03 10:27:02;;;;;;;9.57;8.88;;;4.00;20.10;;;;;;5074954;28;20574;-71
2020/12/03 10:29:31;;;;;;;9.43;8.63;;;4.10;20.70;;;;;;5100485;28;20726;-71
2020/12/03 10:31:58;;;;;;;10.10;8.63;;;4.10;20.70;;;;;;5079721;28;20186;-72
2020/12/03 10:34:26;;;;;;;9.13;8.23;;;4.00;21.50;;;;;;5074167;28;20253;-71
2020/12/03 10:37:00;;;;;;;11.57;8.40;;;3.90;21.10;;;;;;5074074;28;20189;-71
2020/12/03 10:40:07;;;;;;;13.73;7.55;;;3.90;21.30;;;;;;5073464;28;20549;-70
2020/12/03 10:42:40;;;;;;;11.93;9.35;;;3.90;21.90;;;;;;5073361;28;20281;-71
2020/12/03 10:45:13;;;;;;;10.07;9.18;;;3.90;21.90;;;;;;5089205;28;20277;-71
2020/12/03 10:47:54;;;;;;;11.95;9.75;;;4.00;22.20;;;;;;5073600;28;20624;-71
2020/12/03 10:50:20;;;;;;;8.63;7.80;;;4.00;22.90;;;;;;5073509;28;20561;-70
2020/12/03 10:52:46;;;;;;;9.35;8.45;;;4.10;22.30;;;;;;5073260;28;20174;-71
2020/12/03 10:55:21;;;;;;;9.32;8.43;;;4.30;22.30;;;;;;5073460;28;20174;-70
2020/12/03 10:57:55;;;;;;;8.15;7.55;;;4.40;21.60;;;;;;5072127;28;20275;-72
2020/12/03 11:00:21;;;;;;;8.30;7.47;;;4.50;21.80;;;;;;5072970;28;20197;-71
2020/12/03 11:02:51;;;;;;;7.50;6.97;;;4.60;21.50;;;;;;5073378;28;20232;-71
2020/12/03 11:05:17;;;;;;;8.30;7.60;;;4.70;21.20;;;;;;5072134;28;20680;-71
2020/12/03 11:07:55;;;;;;;8.33;7.73;;;4.70;20.90;;;;;;5073216;28;20179;-71
2020/12/03 11:10:21;;;;;;;8.88;8.15;;;4.70;20.90;;;;;;5073029;28;20222;-70
2020/12/03 11:12:50;;;;;;;11.70;9.10;;;4.80;21.40;;;;;;5073115;28;20220;-73
2020/12/03 11:15:20;;;;;;;11.75;9.55;;;4.80;21.00;;;;;;5073256;28;20595;-70
2020/12/03 11:18:00;;;;;;;7.50;6.82;;;4.90;21.10;;;;;;5088853;28;20174;-71
2020/12/03 11:20:29;;;;;;;8.77;8.13;;;4.90;20.80;;;;;;5054270;28;20222;-70
2020/12/03 11:23:17;;;;;;;9.82;8.90;;;4.90;21.40;;;;;;5052888;28;20202;-71
2020/12/03 11:25:44;;;;;;;8.80;8.10;;;4.90;21.70;;;;;;5052880;28;20218;-72
2020/12/03 11:28:25;;;;;;;8.43;7.72;;;4.90;21.40;;;;;;5045793;28;20186;-72
2020/12/03 11:31:02;;;;;;;9.35;7.25;;;4.90;21.10;;;;;;5056293;28;20231;-70
2020/12/03 11:33:30;;;;;;;7.15;6.65;;;4.80;21.80;;;;;;5054285;28;20167;-72
2020/12/03 11:36:10;;;;;;;9.00;7.82;;;4.80;21.80;;;;;;5053058;28;20525;-72
2020/12/03 11:38:38;;;;;;;6.82;6.32;;;4.80;21.80;;;;;;5060341;28;20256;-69
2020/12/03 11:41:29;;;;;;;8.35;7.50;;;4.80;22.00;;;;;;5059178;28;20210;-72
2020/12/03 11:44:30;;;;;;;7.25;6.30;;;4.70;21.80;;;;;;5054595;28;20309;-71
2020/12/03 11:49:29;;;;;;;8.35;7.35;;;4.70;22.40;;;;;;5060052;28;20356;-72
2020/12/03 11:51:55;;;;;;;7.63;6.60;;;4.60;22.40;;;;;;5061889;28;20176;-71
2020/12/03 11:54:28;;;;;;;7.00;6.50;;;4.60;22.60;;;;;;5064818;28;20263;-71
2020/12/03 11:56:59;;;;;;;7.15;6.32;;;4.50;22.90;;;;;;5063487;28;20178;-70
2020/12/03 11:59:35;;;;;;;8.07;7.28;;;4.50;22.90;;;;;;5067970;28;20188;-72
2020/12/03 12:02:02;;;;;;;8.55;7.75;;;4.60;22.60;;;;;;5069116;28;20197;-72
2020/12/03 12:09:33;;;;;;;9.73;8.37;;;4.70;22.60;;;;;;5058785;28;20163;-72
2020/12/03 12:11:59;;;;;;;7.32;6.72;;;4.70;22.30;;;;;;5057893;28;20550;-71
2020/12/03 12:14:25;;;;;;;7.80;6.60;;;4.60;22.70;;;;;;5069470;28;20208;-72
2020/12/03 12:16:52;;;;;;;13.83;8.73;;;4.50;23.00;;;;;;5074599;28;20178;-72
2020/12/03 12:19:18;;;;;;;8.80;6.47;;;4.40;23.00;;;;;;5074284;28;20249;-71
2020/12/03 12:21:43;;;;;;;9.50;8.53;;;4.40;23.80;;;;;;5090337;28;20204;-71
2020/12/03 12:24:09;;;;;;;11.23;7.70;;;4.40;23.50;;;;;;5085762;28;20275;-71
2020/12/03 12:26:35;;;;;;;10.27;8.57;;;4.50;23.40;;;;;;5083299;28;20216;-71
2020/12/03 12:29:00;;;;;;;10.70;9.20;;;4.40;23.90;;;;;;5085895;28;20246;-71
2020/12/03 12:31:26;;;;;;;9.47;8.57;;;4.50;24.00;;;;;;5086844;28;20465;-72
2020/12/03 12:33:51;;;;;;;7.27;6.60;;;4.60;24.10;;;;;;5076985;28;20211;-72
2020/12/03 12:36:17;;;;;;;7.80;6.90;;;4.70;23.20;;;;;;5082353;28;20179;-70
2020/12/03 12:38:42;;;;;;;11.83;9.40;;;4.70;23.20;;;;;;5091260;28;20193;-71
2020/12/03 12:41:09;;;;;;;10.73;9.00;;;4.60;24.00;;;;;;5099347;28;20206;-73
2020/12/03 12:43:34;;;;;;;9.23;8.40;;;4.50;24.00;;;;;;5083157;28;20178;-72
2020/12/03 12:46:00;;;;;;;9.70;8.80;;;4.60;24.10;;;;;;5098083;28;20216;-71
2020/12/03 12:48:25;;;;;;;10.13;9.00;;;4.60;24.00;;;;;;5082455;28;20174;-71
2020/12/03 12:50:54;;;;;;;10.27;8.90;;;4.70;24.10;;;;;;5083944;28;20186;-71
2020/12/03 12:53:20;;;;;;;10.48;8.73;;;4.50;24.30;;;;;;5084801;28;20228;-71
2020/12/03 12:55:45;;;;;;;17.90;10.00;;;4.50;24.40;;;;;;5083783;28;20637;-72
2020/12/03 12:58:11;;;;;;;14.07;9.60;;;4.40;25.00;;;;;;5082465;28;20436;-73
2020/12/03 13:00:37;;;;;;;14.60;9.90;;;4.50;25.30;;;;;;5082118;28;20258;-72
2020/12/03 13:03:02;;;;;;;12.17;10.77;;;4.50;25.20;;;;;;5083510;28;20190;-72
2020/12/03 13:05:28;;;;;;;10.77;9.87;;;4.60;25.10;;;;;;5078216;28;20211;-71
2020/12/03 13:07:54;;;;;;;17.00;9.17;;;4.60;24.60;;;;;;5073479;28;20413;-71
2020/12/03 13:10:19;;;;;;;13.03;10.30;;;4.70;24.60;;;;;;5072291;28;20271;-72
2020/12/03 13:12:45;;;;;;;11.93;10.27;;;4.80;25.00;;;;;;5072195;28;20253;-72
2020/12/03 13:15:11;;;;;;;18.87;9.37;;;4.80;24.70;;;;;;5072111;28;20203;-71
2020/12/03 13:17:37;;;;;;;8.93;8.13;;;4.90;24.60;;;;;;5093162;28;20577;-72
2020/12/03 13:20:06;;;;;;;10.48;8.00;;;4.80;24.20;;;;;;5080299;28;20219;-72